Terminal Aerodrome Forecast
Issued by NWS

Home | Current Version | Previous Version | Text Only | Print | Product List | Glossary Off
Versions: 1 2 3 4 5 6 7 8 9 10 11 12 13 14 15 16 17 18 19 20 21 22 23 24 25 26 27

588
FTUS43 KLOT 251133
TAFORD
TAF
KORD 251133Z 2512/2618 30016G25KT 6SM -SHSN BKN017 OVC025
     FM251500 29015G23KT P6SM BKN022 BKN035
     FM252300 29013G19KT P6SM BKN035
     FM260300 28008KT P6SM SCT150
     FM261000 21007KT P6SM BKN090
     FM261400 20016G24KT P6SM BKN060
     FM261700 21018G28KT P6SM SCT060=

USA.gov is the U.S. government's official web portal to all federal, state and local government web resources and services.